sensor_id;sensor_type;location;lat;lon;timestamp;temperature;humidity
77592;DHT22;66891;46.884;17.436;2023-05-29T00:00:11;13.97;93.38
77592;DHT22;66891;46.884;17.436;2023-05-29T00:02:40;13.97;94.07
77592;DHT22;66891;46.884;17.436;2023-05-29T00:05:11;13.94;94.20
77592;DHT22;66891;46.884;17.436;2023-05-29T00:07:40;13.91;94.26
77592;DHT22;66891;46.884;17.436;2023-05-29T00:10:09;13.88;93.29
77592;DHT22;66891;46.884;17.436;2023-05-29T00:12:38;14.01;93.91
77592;DHT22;66891;46.884;17.436;2023-05-29T00:15:07;14.13;93.50
77592;DHT22;66891;46.884;17.436;2023-05-29T00:17:34;14.15;94.09
77592;DHT22;66891;46.884;17.436;2023-05-29T00:20:02;14.11;93.51
77592;DHT22;66891;46.884;17.436;2023-05-29T00:22:36;14.02;93.43
77592;DHT22;66891;46.884;17.436;2023-05-29T00:25:07;14.01;93.59
77592;DHT22;66891;46.884;17.436;2023-05-29T00:27:35;14.08;94.05
77592;DHT22;66891;46.884;17.436;2023-05-29T00:30:05;14.01;93.68
77592;DHT22;66891;46.884;17.436;2023-05-29T00:32:32;13.98;93.61
77592;DHT22;66891;46.884;17.436;2023-05-29T00:35:00;13.95;93.48
77592;DHT22;66891;46.884;17.436;2023-05-29T00:37:27;13.97;93.43
77592;DHT22;66891;46.884;17.436;2023-05-29T00:39:55;13.94;93.19
77592;DHT22;66891;46.884;17.436;2023-05-29T00:42:22;13.84;93.72
77592;DHT22;66891;46.884;17.436;2023-05-29T00:44:49;13.86;94.12
77592;DHT22;66891;46.884;17.436;2023-05-29T00:47:18;13.92;94.15
77592;DHT22;66891;46.884;17.436;2023-05-29T00:49:46;13.94;93.99
77592;DHT22;66891;46.884;17.436;2023-05-29T00:52:13;14.16;92.38
77592;DHT22;66891;46.884;17.436;2023-05-29T00:54:43;14.11;92.53
77592;DHT22;66891;46.884;17.436;2023-05-29T00:57:12;13.94;93.13
77592;DHT22;66891;46.884;17.436;2023-05-29T00:59:40;13.82;93.73
77592;DHT22;66891;46.884;17.436;2023-05-29T01:02:08;13.75;92.99
77592;DHT22;66891;46.884;17.436;2023-05-29T01:04:38;13.70;93.53
77592;DHT22;66891;46.884;17.436;2023-05-29T01:07:05;13.60;93.50
77592;DHT22;66891;46.884;17.436;2023-05-29T01:09:33;13.74;92.98
77592;DHT22;66891;46.884;17.436;2023-05-29T01:12:17;13.74;92.90
77592;DHT22;66891;46.884;17.436;2023-05-29T01:14:56;13.48;93.74
77592;DHT22;66891;46.884;17.436;2023-05-29T01:17:35;13.63;93.14
77592;DHT22;66891;46.884;17.436;2023-05-29T01:20:16;13.71;93.09
77592;DHT22;66891;46.884;17.436;2023-05-29T01:23:03;13.51;93.64
77592;DHT22;66891;46.884;17.436;2023-05-29T01:25:46;13.46;94.59
77592;DHT22;66891;46.884;17.436;2023-05-29T01:28:20;13.48;94.52
77592;DHT22;66891;46.884;17.436;2023-05-29T01:30:53;13.55;92.86
77592;DHT22;66891;46.884;17.436;2023-05-29T01:33:21;13.51;93.85
77592;DHT22;66891;46.884;17.436;2023-05-29T01:35:49;13.35;93.26
77592;DHT22;66891;46.884;17.436;2023-05-29T01:38:16;13.36;94.21
77592;DHT22;66891;46.884;17.436;2023-05-29T01:40:44;13.28;93.75
77592;DHT22;66891;46.884;17.436;2023-05-29T01:43:13;13.23;93.63
77592;DHT22;66891;46.884;17.436;2023-05-29T01:45:42;13.27;93.50
77592;DHT22;66891;46.884;17.436;2023-05-29T01:48:09;13.26;93.56
77592;DHT22;66891;46.884;17.436;2023-05-29T01:50:37;13.17;93.67
77592;DHT22;66891;46.884;17.436;2023-05-29T01:53:05;13.19;94.43
77592;DHT22;66891;46.884;17.436;2023-05-29T01:55:32;13.20;94.56
77592;DHT22;66891;46.884;17.436;2023-05-29T01:58:00;13.16;94.24
77592;DHT22;66891;46.884;17.436;2023-05-29T02:00:28;13.08;93.96
77592;DHT22;66891;46.884;17.436;2023-05-29T02:02:58;13.08;94.07
77592;DHT22;66891;46.884;17.436;2023-05-29T02:05:29;13.05;94.16
77592;DHT22;66891;46.884;17.436;2023-05-29T02:07:56;13.08;94.15
77592;DHT22;66891;46.884;17.436;2023-05-29T02:10:24;13.09;94.64
77592;DHT22;66891;46.884;17.436;2023-05-29T02:12:51;13.05;94.05
77592;DHT22;66891;46.884;17.436;2023-05-29T02:15:19;13.03;94.01
77592;DHT22;66891;46.884;17.436;2023-05-29T02:17:46;13.03;94.30
77592;DHT22;66891;46.884;17.436;2023-05-29T02:20:15;13.05;93.95
77592;DHT22;66891;46.884;17.436;2023-05-29T02:22:42;13.06;94.07
77592;DHT22;66891;46.884;17.436;2023-05-29T02:25:10;13.05;93.93
77592;DHT22;66891;46.884;17.436;2023-05-29T02:27:37;13.06;94.38
77592;DHT22;66891;46.884;17.436;2023-05-29T02:30:06;13.00;93.81
77592;DHT22;66891;46.884;17.436;2023-05-29T02:32:33;12.98;94.63
77592;DHT22;66891;46.884;17.436;2023-05-29T02:35:01;13.02;94.28
77592;DHT22;66891;46.884;17.436;2023-05-29T02:37:29;13.02;94.30
77592;DHT22;66891;46.884;17.436;2023-05-29T02:39:57;13.00;93.93
77592;DHT22;66891;46.884;17.436;2023-05-29T02:42:24;13.05;93.63
77592;DHT22;66891;46.884;17.436;2023-05-29T02:44:51;13.05;93.79
77592;DHT22;66891;46.884;17.436;2023-05-29T02:47:18;13.10;92.88
77592;DHT22;66891;46.884;17.436;2023-05-29T02:49:46;13.36;91.34
77592;DHT22;66891;46.884;17.436;2023-05-29T02:52:13;13.53;90.46
77592;DHT22;66891;46.884;17.436;2023-05-29T02:54:42;13.60;90.49
77592;DHT22;66891;46.884;17.436;2023-05-29T02:57:09;13.63;90.54
77592;DHT22;66891;46.884;17.436;2023-05-29T02:59:38;13.64;90.43
77592;DHT22;66891;46.884;17.436;2023-05-29T03:02:05;13.68;90.39
77592;DHT22;66891;46.884;17.436;2023-05-29T03:04:33;13.68;90.23
77592;DHT22;66891;46.884;17.436;2023-05-29T03:07:00;13.65;90.15
77592;DHT22;66891;46.884;17.436;2023-05-29T03:09:28;13.60;90.15
77592;DHT22;66891;46.884;17.436;2023-05-29T03:11:56;13.60;90.11
77592;DHT22;66891;46.884;17.436;2023-05-29T03:14:24;13.46;90.07
77592;DHT22;66891;46.884;17.436;2023-05-29T03:16:51;13.36;90.36
77592;DHT22;66891;46.884;17.436;2023-05-29T03:19:19;13.30;91.08
77592;DHT22;66891;46.884;17.436;2023-05-29T03:21:47;13.13;91.44
77592;DHT22;66891;46.884;17.436;2023-05-29T03:24:14;13.17;91.78
77592;DHT22;66891;46.884;17.436;2023-05-29T03:26:41;13.23;91.75
77592;DHT22;66891;46.884;17.436;2023-05-29T03:29:10;13.17;92.17
77592;DHT22;66891;46.884;17.436;2023-05-29T03:31:37;13.09;92.48
77592;DHT22;66891;46.884;17.436;2023-05-29T03:34:05;13.16;92.22
77592;DHT22;66891;46.884;17.436;2023-05-29T03:36:32;13.32;91.96
77592;DHT22;66891;46.884;17.436;2023-05-29T03:39:00;13.23;92.21
77592;DHT22;66891;46.884;17.436;2023-05-29T03:41:27;13.19;92.94
77592;DHT22;66891;46.884;17.436;2023-05-29T03:43:54;13.19;93.01
77592;DHT22;66891;46.884;17.436;2023-05-29T03:46:23;13.43;92.11
77592;DHT22;66891;46.884;17.436;2023-05-29T03:48:50;13.54;92.05
77592;DHT22;66891;46.884;17.436;2023-05-29T03:51:18;13.43;93.02
77592;DHT22;66891;46.884;17.436;2023-05-29T03:53:45;13.42;93.28
77592;DHT22;66891;46.884;17.436;2023-05-29T03:56:12;13.47;93.42
77592;DHT22;66891;46.884;17.436;2023-05-29T03:58:40;13.67;92.53
77592;DHT22;66891;46.884;17.436;2023-05-29T04:01:07;13.68;92.21
77592;DHT22;66891;46.884;17.436;2023-05-29T04:03:37;13.74;91.96
77592;DHT22;66891;46.884;17.436;2023-05-29T04:06:05;13.73;91.62
77592;DHT22;66891;46.884;17.436;2023-05-29T04:08:33;13.77;91.34
77592;DHT22;66891;46.884;17.436;2023-05-29T04:11:01;13.79;91.72
77592;DHT22;66891;46.884;17.436;2023-05-29T04:13:30;13.84;91.50
77592;DHT22;66891;46.884;17.436;2023-05-29T04:15:57;13.88;91.78
77592;DHT22;66891;46.884;17.436;2023-05-29T04:18:25;13.92;91.17
77592;DHT22;66891;46.884;17.436;2023-05-29T04:20:54;13.97;91.46
77592;DHT22;66891;46.884;17.436;2023-05-29T04:23:21;14.01;91.23
77592;DHT22;66891;46.884;17.436;2023-05-29T04:25:49;14.09;91.28
77592;DHT22;66891;46.884;17.436;2023-05-29T04:28:17;14.13;91.40
77592;DHT22;66891;46.884;17.436;2023-05-29T04:30:47;14.18;91.04
77592;DHT22;66891;46.884;17.436;2023-05-29T04:33:15;14.25;91.25
77592;DHT22;66891;46.884;17.436;2023-05-29T04:35:42;14.28;90.98
77592;DHT22;66891;46.884;17.436;2023-05-29T04:38:11;14.32;91.00
77592;DHT22;66891;46.884;17.436;2023-05-29T04:40:38;14.36;90.65
77592;DHT22;66891;46.884;17.436;2023-05-29T04:43:07;14.32;90.56
77592;DHT22;66891;46.884;17.436;2023-05-29T04:45:34;14.36;90.42
77592;DHT22;66891;46.884;17.436;2023-05-29T04:48:04;14.46;90.10
77592;DHT22;66891;46.884;17.436;2023-05-29T04:50:31;14.49;90.35
77592;DHT22;66891;46.884;17.436;2023-05-29T04:52:59;14.59;90.18
77592;DHT22;66891;46.884;17.436;2023-05-29T04:55:27;14.71;90.33
77592;DHT22;66891;46.884;17.436;2023-05-29T04:57:55;14.87;90.20
77592;DHT22;66891;46.884;17.436;2023-05-29T05:00:22;14.94;88.60
77592;DHT22;66891;46.884;17.436;2023-05-29T05:02:50;14.98;88.11
77592;DHT22;66891;46.884;17.436;2023-05-29T05:05:18;14.98;88.11
77592;DHT22;66891;46.884;17.436;2023-05-29T05:07:45;15.07;88.25
77592;DHT22;66891;46.884;17.436;2023-05-29T05:10:12;15.09;87.63
77592;DHT22;66891;46.884;17.436;2023-05-29T05:12:41;15.12;87.68
77592;DHT22;66891;46.884;17.436;2023-05-29T05:15:09;15.12;87.91
77592;DHT22;66891;46.884;17.436;2023-05-29T05:17:37;15.15;86.12
77592;DHT22;66891;46.884;17.436;2023-05-29T05:20:05;15.16;85.29
77592;DHT22;66891;46.884;17.436;2023-05-29T05:22:33;15.15;84.45
77592;DHT22;66891;46.884;17.436;2023-05-29T05:25:00;15.18;84.09
77592;DHT22;66891;46.884;17.436;2023-05-29T05:27:27;15.26;84.58
77592;DHT22;66891;46.884;17.436;2023-05-29T05:29:56;15.28;83.83
77592;DHT22;66891;46.884;17.436;2023-05-29T05:32:23;15.36;83.82
77592;DHT22;66891;46.884;17.436;2023-05-29T05:34:50;15.42;83.44
77592;DHT22;66891;46.884;17.436;2023-05-29T05:37:18;15.47;83.27
77592;DHT22;66891;46.884;17.436;2023-05-29T05:39:45;15.57;83.95
77592;DHT22;66891;46.884;17.436;2023-05-29T05:42:13;15.59;84.02
77592;DHT22;66891;46.884;17.436;2023-05-29T05:44:41;15.59;83.77
77592;DHT22;66891;46.884;17.436;2023-05-29T05:47:09;15.66;84.23
77592;DHT22;66891;46.884;17.436;2023-05-29T05:49:37;15.66;83.03
77592;DHT22;66891;46.884;17.436;2023-05-29T05:52:05;15.70;83.04
77592;DHT22;66891;46.884;17.436;2023-05-29T05:54:32;15.73;82.21
77592;DHT22;66891;46.884;17.436;2023-05-29T05:56:59;15.77;82.55
77592;DHT22;66891;46.884;17.436;2023-05-29T05:59:27;15.86;82.75
77592;DHT22;66891;46.884;17.436;2023-05-29T06:01:55;15.91;82.82
77592;DHT22;66891;46.884;17.436;2023-05-29T06:04:23;15.96;82.53
77592;DHT22;66891;46.884;17.436;2023-05-29T06:06:51;15.94;82.67
77592;DHT22;66891;46.884;17.436;2023-05-29T06:09:18;15.96;82.61
77592;DHT22;66891;46.884;17.436;2023-05-29T06:11:48;16.00;82.13
77592;DHT22;66891;46.884;17.436;2023-05-29T06:14:16;16.10;82.14
77592;DHT22;66891;46.884;17.436;2023-05-29T06:16:43;16.18;81.80
77592;DHT22;66891;46.884;17.436;2023-05-29T06:19:10;16.18;81.68
77592;DHT22;66891;46.884;17.436;2023-05-29T06:21:39;16.33;82.02
77592;DHT22;66891;46.884;17.436;2023-05-29T06:24:06;16.36;82.38
77592;DHT22;66891;46.884;17.436;2023-05-29T06:26:34;16.48;82.20
77592;DHT22;66891;46.884;17.436;2023-05-29T06:29:01;16.52;80.97
77592;DHT22;66891;46.884;17.436;2023-05-29T06:31:28;16.63;80.73
77592;DHT22;66891;46.884;17.436;2023-05-29T06:33:56;16.69;81.52
77592;DHT22;66891;46.884;17.436;2023-05-29T06:36:24;16.77;79.99
77592;DHT22;66891;46.884;17.436;2023-05-29T06:38:52;16.99;79.39
77592;DHT22;66891;46.884;17.436;2023-05-29T06:41:19;17.06;78.96
77592;DHT22;66891;46.884;17.436;2023-05-29T06:43:47;17.27;80.20
77592;DHT22;66891;46.884;17.436;2023-05-29T06:46:16;17.32;78.17
77592;DHT22;66891;46.884;17.436;2023-05-29T06:48:43;17.56;78.61
77592;DHT22;66891;46.884;17.436;2023-05-29T06:51:11;17.65;77.40
77592;DHT22;66891;46.884;17.436;2023-05-29T06:53:39;17.79;76.68
77592;DHT22;66891;46.884;17.436;2023-05-29T06:56:08;17.89;77.45
77592;DHT22;66891;46.884;17.436;2023-05-29T06:58:35;18.14;76.21
77592;DHT22;66891;46.884;17.436;2023-05-29T07:01:02;18.34;76.18
77592;DHT22;66891;46.884;17.436;2023-05-29T07:03:34;18.44;76.15
77592;DHT22;66891;46.884;17.436;2023-05-29T07:06:03;18.47;74.44
77592;DHT22;66891;46.884;17.436;2023-05-29T07:08:31;18.59;75.72
77592;DHT22;66891;46.884;17.436;2023-05-29T07:10:58;18.72;75.80
77592;DHT22;66891;46.884;17.436;2023-05-29T07:13:27;18.78;75.81
77592;DHT22;66891;46.884;17.436;2023-05-29T07:15:54;18.69;75.90
77592;DHT22;66891;46.884;17.436;2023-05-29T07:18:21;18.66;76.06
77592;DHT22;66891;46.884;17.436;2023-05-29T07:20:50;18.78;75.11
77592;DHT22;66891;46.884;17.436;2023-05-29T07:23:17;18.76;75.21
77592;DHT22;66891;46.884;17.436;2023-05-29T07:25:44;18.84;74.95
77592;DHT22;66891;46.884;17.436;2023-05-29T07:28:12;18.85;73.83
77592;DHT22;66891;46.884;17.436;2023-05-29T07:30:49;19.16;74.58
77592;DHT22;66891;46.884;17.436;2023-05-29T07:33:17;19.26;74.04
77592;DHT22;66891;46.884;17.436;2023-05-29T07:35:44;19.28;74.05
77592;DHT22;66891;46.884;17.436;2023-05-29T07:38:11;19.33;73.62
77592;DHT22;66891;46.884;17.436;2023-05-29T07:40:38;19.53;73.73
77592;DHT22;66891;46.884;17.436;2023-05-29T07:43:18;19.67;72.95
77592;DHT22;66891;46.884;17.436;2023-05-29T07:45:45;19.60;71.56
77592;DHT22;66891;46.884;17.436;2023-05-29T07:48:14;19.77;72.86
77592;DHT22;66891;46.884;17.436;2023-05-29T07:50:42;19.71;71.82
77592;DHT22;66891;46.884;17.436;2023-05-29T07:53:09;19.81;71.66
77592;DHT22;66891;46.884;17.436;2023-05-29T07:55:36;19.93;71.92
77592;DHT22;66891;46.884;17.436;2023-05-29T07:58:04;19.92;71.56
77592;DHT22;66891;46.884;17.436;2023-05-29T08:00:31;20.06;71.97
77592;DHT22;66891;46.884;17.436;2023-05-29T08:02:58;20.16;71.63
77592;DHT22;66891;46.884;17.436;2023-05-29T08:05:27;20.57;71.73
77592;DHT22;66891;46.884;17.436;2023-05-29T08:07:54;20.84;70.03
77592;DHT22;66891;46.884;17.436;2023-05-29T08:10:22;20.95;69.10
77592;DHT22;66891;46.884;17.436;2023-05-29T08:12:49;21.25;69.94
77592;DHT22;66891;46.884;17.436;2023-05-29T08:15:17;21.26;68.35
77592;DHT22;66891;46.884;17.436;2023-05-29T08:17:45;21.08;68.26
77592;DHT22;66891;46.884;17.436;2023-05-29T08:20:12;21.25;68.64
77592;DHT22;66891;46.884;17.436;2023-05-29T08:22:41;21.33;68.60
77592;DHT22;66891;46.884;17.436;2023-05-29T08:25:08;21.38;68.43
77592;DHT22;66891;46.884;17.436;2023-05-29T08:27:36;21.33;68.93
77592;DHT22;66891;46.884;17.436;2023-05-29T08:30:04;21.19;68.43
77592;DHT22;66891;46.884;17.436;2023-05-29T08:32:31;21.47;69.43
77592;DHT22;66891;46.884;17.436;2023-05-29T08:34:59;21.45;66.79
77592;DHT22;66891;46.884;17.436;2023-05-29T08:37:26;21.54;66.60
77592;DHT22;66891;46.884;17.436;2023-05-29T08:39:55;21.47;66.70
77592;DHT22;66891;46.884;17.436;2023-05-29T08:42:28;21.76;67.27
77592;DHT22;66891;46.884;17.436;2023-05-29T08:44:56;21.91;66.79
77592;DHT22;66891;46.884;17.436;2023-05-29T08:47:26;21.71;66.91
77592;DHT22;66891;46.884;17.436;2023-05-29T08:49:54;21.78;67.24
77592;DHT22;66891;46.884;17.436;2023-05-29T08:52:23;21.93;66.83
77592;DHT22;66891;46.884;17.436;2023-05-29T08:54:52;21.86;66.94
77592;DHT22;66891;46.884;17.436;2023-05-29T08:57:22;21.81;65.98
77592;DHT22;66891;46.884;17.436;2023-05-29T08:59:51;21.93;66.45
77592;DHT22;66891;46.884;17.436;2023-05-29T09:02:19;22.12;66.95
77592;DHT22;66891;46.884;17.436;2023-05-29T09:04:47;21.98;66.22
77592;DHT22;66891;46.884;17.436;2023-05-29T09:07:16;22.24;66.58
77592;DHT22;66891;46.884;17.436;2023-05-29T09:09:44;22.41;65.56
77592;DHT22;66891;46.884;17.436;2023-05-29T09:12:12;22.19;65.38
77592;DHT22;66891;46.884;17.436;2023-05-29T09:14:42;22.05;64.50
77592;DHT22;66891;46.884;17.436;2023-05-29T09:17:10;22.49;67.07
77592;DHT22;66891;46.884;17.436;2023-05-29T09:19:38;22.55;64.09
77592;DHT22;66891;46.884;17.436;2023-05-29T09:22:08;22.56;64.55
77592;DHT22;66891;46.884;17.436;2023-05-29T09:24:37;22.55;63.72
77592;DHT22;66891;46.884;17.436;2023-05-29T09:27:09;22.76;63.96
77592;DHT22;66891;46.884;17.436;2023-05-29T09:29:39;22.82;63.89
77592;DHT22;66891;46.884;17.436;2023-05-29T09:32:10;22.96;63.35
77592;DHT22;66891;46.884;17.436;2023-05-29T09:34:38;23.07;62.50
77592;DHT22;66891;46.884;17.436;2023-05-29T09:37:07;22.84;61.82
77592;DHT22;66891;46.884;17.436;2023-05-29T09:39:45;22.72;60.32
77592;DHT22;66891;46.884;17.436;2023-05-29T09:42:13;23.00;62.29
77592;DHT22;66891;46.884;17.436;2023-05-29T09:44:42;23.03;60.93
77592;DHT22;66891;46.884;17.436;2023-05-29T09:47:14;23.04;61.10
77592;DHT22;66891;46.884;17.436;2023-05-29T09:49:42;23.15;61.56
77592;DHT22;66891;46.884;17.436;2023-05-29T09:52:11;23.38;61.07
77592;DHT22;66891;46.884;17.436;2023-05-29T09:54:43;23.00;60.54
77592;DHT22;66891;46.884;17.436;2023-05-29T09:57:14;22.99;60.77
77592;DHT22;66891;46.884;17.436;2023-05-29T09:59:43;23.54;62.33
77592;DHT22;66891;46.884;17.436;2023-05-29T10:02:19;23.55;59.12
77592;DHT22;66891;46.884;17.436;2023-05-29T10:04:48;23.24;59.12
77592;DHT22;66891;46.884;17.436;2023-05-29T10:07:22;23.07;60.28
77592;DHT22;66891;46.884;17.436;2023-05-29T10:09:54;22.99;59.82
77592;DHT22;66891;46.884;17.436;2023-05-29T10:12:26;22.99;60.21
77592;DHT22;66891;46.884;17.436;2023-05-29T10:14:56;22.93;58.92
77592;DHT22;66891;46.884;17.436;2023-05-29T10:17:31;22.82;58.71
77592;DHT22;66891;46.884;17.436;2023-05-29T10:20:02;22.76;57.91
77592;DHT22;66891;46.884;17.436;2023-05-29T10:22:33;22.82;57.93
77592;DHT22;66891;46.884;17.436;2023-05-29T10:25:03;22.97;59.58
77592;DHT22;66891;46.884;17.436;2023-05-29T10:27:31;22.87;58.21
77592;DHT22;66891;46.884;17.436;2023-05-29T10:30:04;22.83;58.58
77592;DHT22;66891;46.884;17.436;2023-05-29T10:32:51;22.80;57.71
77592;DHT22;66891;46.884;17.436;2023-05-29T10:35:27;22.53;60.40
77592;DHT22;66891;46.884;17.436;2023-05-29T10:38:02;22.04;71.41
77592;DHT22;66891;46.884;17.436;2023-05-29T10:40:36;19.57;78.72
77592;DHT22;66891;46.884;17.436;2023-05-29T10:43:03;18.85;81.50
77592;DHT22;66891;46.884;17.436;2023-05-29T10:45:51;17.80;84.18
77592;DHT22;66891;46.884;17.436;2023-05-29T10:48:42;17.38;84.06
77592;DHT22;66891;46.884;17.436;2023-05-29T10:51:25;17.21;85.91
77592;DHT22;66891;46.884;17.436;2023-05-29T10:53:53;17.14;85.40
77592;DHT22;66891;46.884;17.436;2023-05-29T10:56:22;17.31;84.62
77592;DHT22;66891;46.884;17.436;2023-05-29T10:58:55;16.90;89.08
77592;DHT22;66891;46.884;17.436;2023-05-29T11:01:27;17.00;91.37
77592;DHT22;66891;46.884;17.436;2023-05-29T11:06:52;17.21;90.62
77592;DHT22;66891;46.884;17.436;2023-05-29T11:09:31;17.63;90.57
77592;DHT22;66891;46.884;17.436;2023-05-29T11:12:21;17.65;91.49
77592;DHT22;66891;46.884;17.436;2023-05-29T11:15:05;17.80;89.93
77592;DHT22;66891;46.884;17.436;2023-05-29T11:17:45;18.04;93.14
77592;DHT22;66891;46.884;17.436;2023-05-29T11:20:20;18.49;91.36
77592;DHT22;66891;46.884;17.436;2023-05-29T11:23:01;19.02;90.61
77592;DHT22;66891;46.884;17.436;2023-05-29T11:25:29;19.27;91.37
77592;DHT22;66891;46.884;17.436;2023-05-29T11:28:00;19.68;88.36
77592;DHT22;66891;46.884;17.436;2023-05-29T11:30:27;20.12;87.10
77592;DHT22;66891;46.884;17.436;2023-05-29T11:32:59;20.77;87.33
77592;DHT22;66891;46.884;17.436;2023-05-29T11:35:30;21.33;88.32
77592;DHT22;66891;46.884;17.436;2023-05-29T11:38:01;21.35;84.74
77592;DHT22;66891;46.884;17.436;2023-05-29T11:40:35;21.05;86.75
77592;DHT22;66891;46.884;17.436;2023-05-29T11:43:03;20.87;88.54
77592;DHT22;66891;46.884;17.436;2023-05-29T11:45:32;20.73;88.68
77592;DHT22;66891;46.884;17.436;2023-05-29T11:48:03;20.92;84.21
77592;DHT22;66891;46.884;17.436;2023-05-29T11:50:32;20.88;79.33
77592;DHT22;66891;46.884;17.436;2023-05-29T11:53:01;20.92;78.94
77592;DHT22;66891;46.884;17.436;2023-05-29T11:55:28;20.99;79.06
77592;DHT22;66891;46.884;17.436;2023-05-29T11:57:56;21.15;78.03
77592;DHT22;66891;46.884;17.436;2023-05-29T12:00:26;20.92;82.75
77592;DHT22;66891;46.884;17.436;2023-05-29T12:02:58;20.61;83.76
77592;DHT22;66891;46.884;17.436;2023-05-29T12:05:25;20.57;85.28
77592;DHT22;66891;46.884;17.436;2023-05-29T12:07:54;20.63;79.14
77592;DHT22;66891;46.884;17.436;2023-05-29T12:10:26;20.53;78.99
77592;DHT22;66891;46.884;17.436;2023-05-29T12:12:55;20.37;82.44
77592;DHT22;66891;46.884;17.436;2023-05-29T12:15:23;20.58;80.66
77592;DHT22;66891;46.884;17.436;2023-05-29T12:17:51;20.33;78.78
77592;DHT22;66891;46.884;17.436;2023-05-29T12:20:19;20.18;83.71
77592;DHT22;66891;46.884;17.436;2023-05-29T12:22:49;20.16;84.44
77592;DHT22;66891;46.884;17.436;2023-05-29T12:25:18;20.25;82.95
77592;DHT22;66891;46.884;17.436;2023-05-29T12:27:47;20.22;78.60
77592;DHT22;66891;46.884;17.436;2023-05-29T12:30:20;20.50;78.38
77592;DHT22;66891;46.884;17.436;2023-05-29T12:32:59;20.61;82.34
77592;DHT22;66891;46.884;17.436;2023-05-29T12:35:29;21.16;76.96
77592;DHT22;66891;46.884;17.436;2023-05-29T12:37:57;22.38;73.07
77592;DHT22;66891;46.884;17.436;2023-05-29T12:40:26;23.28;69.48
77592;DHT22;66891;46.884;17.436;2023-05-29T12:42:56;22.77;67.49
77592;DHT22;66891;46.884;17.436;2023-05-29T12:45:25;23.39;70.47
77592;DHT22;66891;46.884;17.436;2023-05-29T12:47:54;23.95;68.29
77592;DHT22;66891;46.884;17.436;2023-05-29T12:50:25;23.58;65.27
77592;DHT22;66891;46.884;17.436;2023-05-29T12:52:57;24.25;69.30
77592;DHT22;66891;46.884;17.436;2023-05-29T12:55:25;24.20;58.82
77592;DHT22;66891;46.884;17.436;2023-05-29T12:57:55;24.09;61.79
77592;DHT22;66891;46.884;17.436;2023-05-29T13:00:23;23.75;62.66
77592;DHT22;66891;46.884;17.436;2023-05-29T13:02:51;23.93;70.41
77592;DHT22;66891;46.884;17.436;2023-05-29T13:05:18;24.24;58.99
77592;DHT22;66891;46.884;17.436;2023-05-29T13:07:46;23.96;65.04
77592;DHT22;66891;46.884;17.436;2023-05-29T13:10:14;23.20;71.10
77592;DHT22;66891;46.884;17.436;2023-05-29T13:12:42;22.76;72.13
77592;DHT22;66891;46.884;17.436;2023-05-29T13:15:13;22.94;73.08
77592;DHT22;66891;46.884;17.436;2023-05-29T13:17:40;23.39;67.51
77592;DHT22;66891;46.884;17.436;2023-05-29T13:20:09;23.66;63.18
77592;DHT22;66891;46.884;17.436;2023-05-29T13:22:38;23.82;61.19
77592;DHT22;66891;46.884;17.436;2023-05-29T13:25:07;24.03;63.67
77592;DHT22;66891;46.884;17.436;2023-05-29T13:27:37;23.66;65.89
77592;DHT22;66891;46.884;17.436;2023-05-29T13:30:06;23.14;69.67
77592;DHT22;66891;46.884;17.436;2023-05-29T13:32:35;23.38;71.20
77592;DHT22;66891;46.884;17.436;2023-05-29T13:35:03;23.38;68.99
77592;DHT22;66891;46.884;17.436;2023-05-29T13:37:31;23.30;68.27
77592;DHT22;66891;46.884;17.436;2023-05-29T13:39:58;23.44;66.51
77592;DHT22;66891;46.884;17.436;2023-05-29T13:42:26;23.44;66.47
77592;DHT22;66891;46.884;17.436;2023-05-29T13:44:53;23.38;69.56
77592;DHT22;66891;46.884;17.436;2023-05-29T13:47:21;23.38;69.85
77592;DHT22;66891;46.884;17.436;2023-05-29T13:49:50;23.63;68.72
77592;DHT22;66891;46.884;17.436;2023-05-29T13:52:17;23.83;62.33
77592;DHT22;66891;46.884;17.436;2023-05-29T13:54:44;23.69;68.73
77592;DHT22;66891;46.884;17.436;2023-05-29T13:57:12;23.75;66.47
77592;DHT22;66891;46.884;17.436;2023-05-29T13:59:39;23.58;64.97
77592;DHT22;66891;46.884;17.436;2023-05-29T14:02:06;23.47;67.06
77592;DHT22;66891;46.884;17.436;2023-05-29T14:04:35;23.48;62.12
77592;DHT22;66891;46.884;17.436;2023-05-29T14:07:04;23.31;64.68
77592;DHT22;66891;46.884;17.436;2023-05-29T14:09:32;23.17;70.35
77592;DHT22;66891;46.884;17.436;2023-05-29T14:11:59;23.10;66.82
77592;DHT22;66891;46.884;17.436;2023-05-29T14:14:27;23.45;63.27
77592;DHT22;66891;46.884;17.436;2023-05-29T14:16:54;23.66;59.07
77592;DHT22;66891;46.884;17.436;2023-05-29T14:19:22;23.65;61.99
77592;DHT22;66891;46.884;17.436;2023-05-29T14:21:50;23.41;62.09
77592;DHT22;66891;46.884;17.436;2023-05-29T14:24:19;23.52;63.96
77592;DHT22;66891;46.884;17.436;2023-05-29T14:26:46;23.61;61.64
77592;DHT22;66891;46.884;17.436;2023-05-29T14:29:14;23.37;62.52
77592;DHT22;66891;46.884;17.436;2023-05-29T14:31:42;23.66;63.44
77592;DHT22;66891;46.884;17.436;2023-05-29T14:34:11;23.45;60.47
77592;DHT22;66891;46.884;17.436;2023-05-29T14:36:39;23.51;59.60
77592;DHT22;66891;46.884;17.436;2023-05-29T14:39:07;23.51;60.97
77592;DHT22;66891;46.884;17.436;2023-05-29T14:41:36;23.38;58.21
77592;DHT22;66891;46.884;17.436;2023-05-29T14:44:03;23.48;59.91
77592;DHT22;66891;46.884;17.436;2023-05-29T14:46:31;23.21;60.39
77592;DHT22;66891;46.884;17.436;2023-05-29T14:48:59;23.27;59.52
77592;DHT22;66891;46.884;17.436;2023-05-29T14:51:27;23.21;59.27
77592;DHT22;66891;46.884;17.436;2023-05-29T14:53:55;23.24;60.59
77592;DHT22;66891;46.884;17.436;2023-05-29T14:56:22;23.28;59.93
77592;DHT22;66891;46.884;17.436;2023-05-29T14:58:51;23.17;60.11
77592;DHT22;66891;46.884;17.436;2023-05-29T15:01:19;23.10;60.43
77592;DHT22;66891;46.884;17.436;2023-05-29T15:03:47;22.99;62.21
77592;DHT22;66891;46.884;17.436;2023-05-29T15:06:14;23.07;60.63
77592;DHT22;66891;46.884;17.436;2023-05-29T15:08:42;23.12;62.58
77592;DHT22;66891;46.884;17.436;2023-05-29T15:11:10;23.28;61.25
77592;DHT22;66891;46.884;17.436;2023-05-29T15:13:42;23.20;62.23
77592;DHT22;66891;46.884;17.436;2023-05-29T15:16:11;23.08;61.81
77592;DHT22;66891;46.884;17.436;2023-05-29T15:18:38;23.04;63.54
77592;DHT22;66891;46.884;17.436;2023-05-29T15:21:06;23.20;63.20
77592;DHT22;66891;46.884;17.436;2023-05-29T15:23:33;23.22;62.60
77592;DHT22;66891;46.884;17.436;2023-05-29T15:26:05;23.10;64.42
77592;DHT22;66891;46.884;17.436;2023-05-29T15:28:33;23.11;64.98